sensor_id;sensor_type;location;lat;lon;timestamp;pressure;altitude;pressure_sealevel;temperature
37452;BMP280;23314;51.114;6.900;2023-03-29T00:00:45;101492.69;;;7.64
37452;BMP280;23314;51.114;6.900;2023-03-29T00:03:10;101479.00;;;7.62
37452;BMP280;23314;51.114;6.900;2023-03-29T00:05:38;101485.09;;;7.63
37452;BMP280;23314;51.114;6.900;2023-03-29T00:08:05;101481.66;;;7.62
37452;BMP280;23314;51.114;6.900;2023-03-29T00:10:32;101473.69;;;7.62
37452;BMP280;23314;51.114;6.900;2023-03-29T00:12:58;101474.41;;;7.59
37452;BMP280;23314;51.114;6.900;2023-03-29T00:15:24;101474.03;;;7.57
37452;BMP280;23314;51.114;6.900;2023-03-29T00:17:49;101470.97;;;7.55
37452;BMP280;23314;51.114;6.900;2023-03-29T00:20:15;101467.13;;;7.52
37452;BMP280;23314;51.114;6.900;2023-03-29T00:22:41;101467.13;;;7.52
37452;BMP280;23314;51.114;6.900;2023-03-29T00:25:11;101468.25;;;7.51
37452;BMP280;23314;51.114;6.900;2023-03-29T00:27:36;101467.13;;;7.52
37452;BMP280;23314;51.114;6.900;2023-03-29T00:30:04;101464.88;;;7.54
37452;BMP280;23314;51.114;6.900;2023-03-29T00:32:31;101464.88;;;7.54
37452;BMP280;23314;51.114;6.900;2023-03-29T00:34:58;101453.50;;;7.54
37452;BMP280;23314;51.114;6.900;2023-03-29T00:37:25;101447.84;;;7.55
37452;BMP280;23314;51.114;6.900;2023-03-29T00:39:54;101444.84;;;7.57
37452;BMP280;23314;51.114;6.900;2023-03-29T00:42:19;101439.53;;;7.57
37452;BMP280;23314;51.114;6.900;2023-03-29T00:47:42;101446.38;;;7.62
37452;BMP280;23314;51.114;6.900;2023-03-29T00:50:13;101438.41;;;7.62
37452;BMP280;23314;51.114;6.900;2023-03-29T00:52:41;101438.00;;;7.60
37452;BMP280;23314;51.114;6.900;2023-03-29T00:55:11;101442.53;;;7.59
37452;BMP280;23314;51.114;6.900;2023-03-29T00:57:39;101441.00;;;7.58
37452;BMP280;23314;51.114;6.900;2023-03-29T01:00:06;101433.81;;;7.59
37452;BMP280;23314;51.114;6.900;2023-03-29T01:02:37;101432.31;;;7.58
37452;BMP280;23314;51.114;6.900;2023-03-29T01:05:16;101425.06;;;7.58
37452;BMP280;23314;51.114;6.900;2023-03-29T01:07:53;101418.63;;;7.59
37452;BMP280;23314;51.114;6.900;2023-03-29T01:10:40;101422.41;;;7.58
37452;BMP280;23314;51.114;6.900;2023-03-29T01:13:17;101417.50;;;7.60
37452;BMP280;23314;51.114;6.900;2023-03-29T01:15:44;101424.03;;;7.63
37452;BMP280;23314;51.114;6.900;2023-03-29T01:18:11;101420.25;;;7.64
37452;BMP280;23314;51.114;6.900;2023-03-29T01:21:03;101419.13;;;7.65
37452;BMP280;23314;51.114;6.900;2023-03-29T01:23:53;101417.59;;;7.64
37452;BMP280;23314;51.114;6.900;2023-03-29T01:26:51;101409.63;;;7.64
37452;BMP280;23314;51.114;6.900;2023-03-29T01:29:25;101412.69;;;7.66
37452;BMP280;23314;51.114;6.900;2023-03-29T01:31:56;101418.41;;;7.68
37452;BMP280;23314;51.114;6.900;2023-03-29T01:37:33;101409.31;;;7.72
37452;BMP280;23314;51.114;6.900;2023-03-29T01:40:00;101406.66;;;7.69
37452;BMP280;23314;51.114;6.900;2023-03-29T01:42:40;101397.50;;;7.70
37452;BMP280;23314;51.114;6.900;2023-03-29T01:45:32;101397.16;;;7.71
37452;BMP280;23314;51.114;6.900;2023-03-29T01:48:24;101378.63;;;7.75
37452;BMP280;23314;51.114;6.900;2023-03-29T01:51:00;101377.50;;;7.76
37452;BMP280;23314;51.114;6.900;2023-03-29T01:53:49;101381.28;;;7.75
37452;BMP280;23314;51.114;6.900;2023-03-29T01:56:20;101376.69;;;7.72
37452;BMP280;23314;51.114;6.900;2023-03-29T01:58:50;101366.47;;;7.74
37452;BMP280;23314;51.114;6.900;2023-03-29T02:01:21;101368.78;;;7.76
37452;BMP280;23314;51.114;6.900;2023-03-29T02:03:52;101366.16;;;7.79
37452;BMP280;23314;51.114;6.900;2023-03-29T02:06:21;101371.13;;;7.84
37452;BMP280;23314;51.114;6.900;2023-03-29T02:08:48;101365.09;;;7.87
37452;BMP280;23314;51.114;6.900;2023-03-29T02:11:14;101364.72;;;7.89
37452;BMP280;23314;51.114;6.900;2023-03-29T02:13:40;101357.94;;;7.92
37452;BMP280;23314;51.114;6.900;2023-03-29T02:16:10;101352.22;;;7.93
37452;BMP280;23314;51.114;6.900;2023-03-29T02:18:37;101346.53;;;7.91
37452;BMP280;23314;51.114;6.900;2023-03-29T02:21:03;101354.88;;;7.93
37452;BMP280;23314;51.114;6.900;2023-03-29T02:23:32;101350.38;;;7.97
37452;BMP280;23314;51.114;6.900;2023-03-29T02:25:59;101348.13;;;7.99
37452;BMP280;23314;51.114;6.900;2023-03-29T02:28:27;101345.47;;;7.99
37452;BMP280;23314;51.114;6.900;2023-03-29T02:33:46;101340.56;;;8.01
37452;BMP280;23314;51.114;6.900;2023-03-29T02:36:17;101331.06;;;8.00
37452;BMP280;23314;51.114;6.900;2023-03-29T02:38:43;101330.28;;;8.00
37452;BMP280;23314;51.114;6.900;2023-03-29T02:41:09;101334.06;;;7.99
37452;BMP280;23314;51.114;6.900;2023-03-29T02:43:36;101332.94;;;8.00
37452;BMP280;23314;51.114;6.900;2023-03-29T02:46:03;101333.34;;;8.02
37452;BMP280;23314;51.114;6.900;2023-03-29T02:48:31;101342.47;;;8.04
37452;BMP280;23314;51.114;6.900;2023-03-29T02:50:59;101339.06;;;8.08
37452;BMP280;23314;51.114;6.900;2023-03-29T02:53:31;101347.84;;;8.12
37452;BMP280;23314;51.114;6.900;2023-03-29T02:55:57;101357.72;;;8.15
37452;BMP280;23314;51.114;6.900;2023-03-29T02:58:26;101356.63;;;8.19
37452;BMP280;23314;51.114;6.900;2023-03-29T03:00:54;101357.06;;;8.25
37452;BMP280;23314;51.114;6.900;2023-03-29T03:03:21;101342.25;;;8.28
37452;BMP280;23314;51.114;6.900;2023-03-29T03:05:46;101344.91;;;8.28
37452;BMP280;23314;51.114;6.900;2023-03-29T03:08:11;101344.50;;;8.22
37452;BMP280;23314;51.114;6.900;2023-03-29T03:10:38;101338.81;;;8.24
37452;BMP280;23314;51.114;6.900;2023-03-29T03:13:04;101341.84;;;8.26
37452;BMP280;23314;51.114;6.900;2023-03-29T03:15:30;101338.09;;;8.30
37452;BMP280;23314;51.114;6.900;2023-03-29T03:17:57;101340.81;;;8.34
37452;BMP280;23314;51.114;6.900;2023-03-29T03:20:22;101344.22;;;8.38
37452;BMP280;23314;51.114;6.900;2023-03-29T03:22:47;101332.47;;;8.39
37452;BMP280;23314;51.114;6.900;2023-03-29T03:25:14;101328.31;;;8.42
37452;BMP280;23314;51.114;6.900;2023-03-29T03:27:41;101327.56;;;8.45
37452;BMP280;23314;51.114;6.900;2023-03-29T03:30:07;101328.69;;;8.47
37452;BMP280;23314;51.114;6.900;2023-03-29T03:32:33;101315.47;;;8.51
37452;BMP280;23314;51.114;6.900;2023-03-29T03:34:59;101315.06;;;8.52
37452;BMP280;23314;51.114;6.900;2023-03-29T03:37:25;101313.94;;;8.54
37452;BMP280;23314;51.114;6.900;2023-03-29T03:39:50;101305.97;;;8.54
37452;BMP280;23314;51.114;6.900;2023-03-29T03:42:16;101307.09;;;8.52
37452;BMP280;23314;51.114;6.900;2023-03-29T03:44:41;101302.56;;;8.53
37452;BMP280;23314;51.114;6.900;2023-03-29T03:47:08;101311.28;;;8.54
37452;BMP280;23314;51.114;6.900;2023-03-29T03:49:33;101303.72;;;8.56
37452;BMP280;23314;51.114;6.900;2023-03-29T03:51:59;101301.41;;;8.58
37452;BMP280;23314;51.114;6.900;2023-03-29T03:54:25;101304.47;;;8.60
37452;BMP280;23314;51.114;6.900;2023-03-29T03:56:50;101295.00;;;8.62
37452;BMP280;23314;51.114;6.900;2023-03-29T03:59:16;101306.03;;;8.64
37452;BMP280;23314;51.114;6.900;2023-03-29T04:01:41;101306.81;;;8.65
37452;BMP280;23314;51.114;6.900;2023-03-29T04:04:09;101303.78;;;8.66
37452;BMP280;23314;51.114;6.900;2023-03-29T04:06:35;101306.41;;;8.70
37452;BMP280;23314;51.114;6.900;2023-03-29T04:09:00;101298.84;;;8.72
37452;BMP280;23314;51.114;6.900;2023-03-29T04:11:26;101297.69;;;8.73
37452;BMP280;23314;51.114;6.900;2023-03-29T04:13:51;101299.25;;;8.78
37452;BMP280;23314;51.114;6.900;2023-03-29T04:16:17;101296.59;;;8.81
37452;BMP280;23314;51.114;6.900;2023-03-29T04:19:05;101308.78;;;8.82
37452;BMP280;23314;51.114;6.900;2023-03-29T04:21:30;101300.41;;;8.84
37452;BMP280;23314;51.114;6.900;2023-03-29T04:23:57;101301.94;;;8.85
37452;BMP280;23314;51.114;6.900;2023-03-29T04:26:23;101297.78;;;8.88
37452;BMP280;23314;51.114;6.900;2023-03-29T04:28:48;101302.31;;;8.91
37452;BMP280;23314;51.114;6.900;2023-03-29T04:31:14;101298.50;;;8.88
37452;BMP280;23314;51.114;6.900;2023-03-29T04:33:41;101295.44;;;8.79
37452;BMP280;23314;51.114;6.900;2023-03-29T04:36:06;101296.19;;;8.72
37452;BMP280;23314;51.114;6.900;2023-03-29T04:38:33;101290.06;;;8.64
37452;BMP280;23314;51.114;6.900;2023-03-29T04:41:02;101290.78;;;8.58
37452;BMP280;23314;51.114;6.900;2023-03-29T04:43:29;101287.34;;;8.54
37452;BMP280;23314;51.114;6.900;2023-03-29T04:45:55;101282.03;;;8.50
37452;BMP280;23314;51.114;6.900;2023-03-29T04:48:20;101283.91;;;8.49
37452;BMP280;23314;51.114;6.900;2023-03-29T04:50:46;101274.81;;;8.47
37452;BMP280;23314;51.114;6.900;2023-03-29T04:53:12;101275.94;;;8.46
37452;BMP280;23314;51.114;6.900;2023-03-29T04:55:37;101278.19;;;8.47
37452;BMP280;23314;51.114;6.900;2023-03-29T04:58:02;101282.38;;;8.45
37452;BMP280;23314;51.114;6.900;2023-03-29T05:00:28;101275.13;;;8.42
37452;BMP280;23314;51.114;6.900;2023-03-29T05:02:55;101277.03;;;8.41
37452;BMP280;23314;51.114;6.900;2023-03-29T05:05:22;101282.38;;;8.45
37452;BMP280;23314;51.114;6.900;2023-03-29T05:07:47;101277.88;;;8.60
37452;BMP280;23314;51.114;6.900;2023-03-29T05:10:12;101277.56;;;8.72
37452;BMP280;23314;51.114;6.900;2023-03-29T05:12:38;101277.56;;;8.72
37452;BMP280;23314;51.114;6.900;2023-03-29T05:15:04;101273.38;;;8.71
37452;BMP280;23314;51.114;6.900;2023-03-29T05:17:30;101264.63;;;8.71
37452;BMP280;23314;51.114;6.900;2023-03-29T05:19:56;101263.91;;;8.74
37452;BMP280;23314;51.114;6.900;2023-03-29T05:22:22;101265.44;;;8.75
37452;BMP280;23314;51.114;6.900;2023-03-29T05:24:48;101256.66;;;8.74
37452;BMP280;23314;51.114;6.900;2023-03-29T05:27:13;101255.53;;;8.79
37452;BMP280;23314;51.114;6.900;2023-03-29T05:29:39;101256.31;;;8.79
37452;BMP280;23314;51.114;6.900;2023-03-29T05:32:04;101251.38;;;8.78
37452;BMP280;23314;51.114;6.900;2023-03-29T05:34:30;101258.97;;;8.83
37452;BMP280;23314;51.114;6.900;2023-03-29T05:36:56;101253.28;;;8.88
37452;BMP280;23314;51.114;6.900;2023-03-29T05:39:23;101254.81;;;8.93
37452;BMP280;23314;51.114;6.900;2023-03-29T05:41:49;101253.72;;;9.01
37452;BMP280;23314;51.114;6.900;2023-03-29T05:44:14;101244.25;;;9.07
37452;BMP280;23314;51.114;6.900;2023-03-29T05:46:41;101244.22;;;9.14
37452;BMP280;23314;51.114;6.900;2023-03-29T05:49:06;101246.94;;;9.25
37452;BMP280;23314;51.114;6.900;2023-03-29T05:51:33;101239.34;;;9.42
37452;BMP280;23314;51.114;6.900;2023-03-29T05:54:00;101243.13;;;9.44
37452;BMP280;23314;51.114;6.900;2023-03-29T05:56:25;101239.72;;;9.44
37452;BMP280;23314;51.114;6.900;2023-03-29T05:58:54;101237.81;;;9.44
37452;BMP280;23314;51.114;6.900;2023-03-29T06:01:24;101239.34;;;9.45
37452;BMP280;23314;51.114;6.900;2023-03-29T06:03:50;101243.50;;;9.50
37452;BMP280;23314;51.114;6.900;2023-03-29T06:06:16;101242.00;;;9.53
37452;BMP280;23314;51.114;6.900;2023-03-29T06:08:42;101251.13;;;9.55
37452;BMP280;23314;51.114;6.900;2023-03-29T06:11:10;101246.56;;;9.59
37452;BMP280;23314;51.114;6.900;2023-03-29T06:13:36;101253.41;;;9.64
37452;BMP280;23314;51.114;6.900;2023-03-29T06:16:04;101257.22;;;9.63
37452;BMP280;23314;51.114;6.900;2023-03-29T06:18:31;101256.84;;;9.65
37452;BMP280;23314;51.114;6.900;2023-03-29T06:20:57;101252.28;;;9.69
37452;BMP280;23314;51.114;6.900;2023-03-29T06:23:22;101255.69;;;9.69
37452;BMP280;23314;51.114;6.900;2023-03-29T06:25:48;101261.03;;;9.69
37452;BMP280;23314;51.114;6.900;2023-03-29T06:28:16;101254.94;;;9.72
37452;BMP280;23314;51.114;6.900;2023-03-29T06:30:42;101256.44;;;9.77
37452;BMP280;23314;51.114;6.900;2023-03-29T06:33:08;101253.03;;;9.80
37452;BMP280;23314;51.114;6.900;2023-03-29T06:35:35;101248.09;;;9.82
37452;BMP280;23314;51.114;6.900;2023-03-29T06:38:01;101250.75;;;9.86
37452;BMP280;23314;51.114;6.900;2023-03-29T06:40:27;101252.63;;;9.89
37452;BMP280;23314;51.114;6.900;2023-03-29T06:42:56;101257.97;;;9.92
37452;BMP280;23314;51.114;6.900;2023-03-29T06:45:23;101264.44;;;9.91
37452;BMP280;23314;51.114;6.900;2023-03-29T06:47:48;101262.91;;;9.94
37452;BMP280;23314;51.114;6.900;2023-03-29T06:50:14;101263.66;;;9.98
37452;BMP280;23314;51.114;6.900;2023-03-29T06:52:41;101261.75;;;10.06
37452;BMP280;23314;51.114;6.900;2023-03-29T06:55:07;101273.19;;;10.10
37452;BMP280;23314;51.114;6.900;2023-03-29T06:57:33;101273.16;;;10.14
37452;BMP280;23314;51.114;6.900;2023-03-29T06:59:58;101281.53;;;10.16
37452;BMP280;23314;51.114;6.900;2023-03-29T07:02:24;101269.34;;;10.18
37452;BMP280;23314;51.114;6.900;2023-03-29T07:04:49;101270.88;;;10.19
37452;BMP280;23314;51.114;6.900;2023-03-29T07:07:15;101272.38;;;10.20
37452;BMP280;23314;51.114;6.900;2023-03-29T07:09:45;101267.44;;;10.26
37452;BMP280;23314;51.114;6.900;2023-03-29T07:12:11;101272.38;;;10.31
37452;BMP280;23314;51.114;6.900;2023-03-29T07:14:36;101267.41;;;10.37
37452;BMP280;23314;51.114;6.900;2023-03-29T07:17:02;101273.06;;;10.42
37452;BMP280;23314;51.114;6.900;2023-03-29T07:19:28;101271.16;;;10.47
37452;BMP280;23314;51.114;6.900;2023-03-29T07:21:54;101280.66;;;10.55
37452;BMP280;23314;51.114;6.900;2023-03-29T07:24:21;101278.72;;;10.63
37452;BMP280;23314;51.114;6.900;2023-03-29T07:26:47;101276.03;;;10.66
37452;BMP280;23314;51.114;6.900;2023-03-29T07:29:13;101279.84;;;10.69
37452;BMP280;23314;51.114;6.900;2023-03-29T07:31:38;101279.03;;;10.72
37452;BMP280;23314;51.114;6.900;2023-03-29T07:34:06;101274.84;;;10.74
37452;BMP280;23314;51.114;6.900;2023-03-29T07:36:36;101278.66;;;10.77
37452;BMP280;23314;51.114;6.900;2023-03-29T07:39:03;101279.00;;;10.79
37452;BMP280;23314;51.114;6.900;2023-03-29T07:41:29;101278.25;;;10.82
37452;BMP280;23314;51.114;6.900;2023-03-29T07:43:54;101278.59;;;10.88
37452;BMP280;23314;51.114;6.900;2023-03-29T07:46:20;101284.31;;;10.94
37452;BMP280;23314;51.114;6.900;2023-03-29T07:48:45;101277.06;;;10.94
37452;BMP280;23314;51.114;6.900;2023-03-29T07:51:10;101276.25;;;10.97
37452;BMP280;23314;51.114;6.900;2023-03-29T07:53:36;101284.97;;;11.05
37452;BMP280;23314;51.114;6.900;2023-03-29T07:56:01;101292.19;;;11.15
37452;BMP280;23314;51.114;6.900;2023-03-29T07:58:27;101276.09;;;11.26
37452;BMP280;23314;51.114;6.900;2023-03-29T08:00:53;101284.13;;;11.26
37452;BMP280;23314;51.114;6.900;2023-03-29T08:03:18;101290.97;;;11.23
37452;BMP280;23314;51.114;6.900;2023-03-29T08:05:44;101295.53;;;11.27
37452;BMP280;23314;51.114;6.900;2023-03-29T08:08:09;101292.03;;;11.37
37452;BMP280;23314;51.114;6.900;2023-03-29T08:10:36;101295.38;;;11.48
37452;BMP280;23314;51.114;6.900;2023-03-29T08:13:04;101289.94;;;11.59
37452;BMP280;23314;51.114;6.900;2023-03-29T08:15:32;101284.13;;;11.71
37452;BMP280;23314;51.114;6.900;2023-03-29T08:17:58;101280.56;;;11.85
37452;BMP280;23314;51.114;6.900;2023-03-29T08:20:23;101284.97;;;12.03
37452;BMP280;23314;51.114;6.900;2023-03-29T08:22:48;101281.69;;;12.22
37452;BMP280;23314;51.114;6.900;2023-03-29T08:25:14;101287.59;;;12.41
37452;BMP280;23314;51.114;6.900;2023-03-29T08:27:39;101279.44;;;12.52
37452;BMP280;23314;51.114;6.900;2023-03-29T08:30:06;101280.78;;;12.64
37452;BMP280;23314;51.114;6.900;2023-03-29T08:32:32;101284.91;;;12.72
37452;BMP280;23314;51.114;6.900;2023-03-29T08:34:59;101278.75;;;12.75
37452;BMP280;23314;51.114;6.900;2023-03-29T08:37:28;101281.56;;;12.95
37452;BMP280;23314;51.114;6.900;2023-03-29T08:39:53;101287.03;;;13.12
37452;BMP280;23314;51.114;6.900;2023-03-29T08:45:08;101286.63;;;13.37
37452;BMP280;23314;51.114;6.900;2023-03-29T08:50:13;101281.94;;;13.65
37452;BMP280;23314;51.114;6.900;2023-03-29T08:52:43;101283.34;;;13.73
37452;BMP280;23314;51.114;6.900;2023-03-29T08:55:23;101274.25;;;13.67
37452;BMP280;23314;51.114;6.900;2023-03-29T08:57:51;101268.13;;;13.66
37452;BMP280;23314;51.114;6.900;2023-03-29T09:00:20;101266.63;;;13.65
37452;BMP280;23314;51.114;6.900;2023-03-29T09:02:50;101261.69;;;13.64
37452;BMP280;23314;51.114;6.900;2023-03-29T09:05:27;101262.72;;;13.70
37452;BMP280;23314;51.114;6.900;2023-03-29T09:07:53;101265.59;;;13.79
37452;BMP280;23314;51.114;6.900;2023-03-29T09:10:23;101268.91;;;13.87
37452;BMP280;23314;51.114;6.900;2023-03-29T09:13:00;101258.22;;;14.03
37452;BMP280;23314;51.114;6.900;2023-03-29T09:15:53;101268.03;;;14.14
37452;BMP280;23314;51.114;6.900;2023-03-29T09:18:28;101264.97;;;14.12
37452;BMP280;23314;51.114;6.900;2023-03-29T09:20:59;101272.41;;;14.04
37452;BMP280;23314;51.114;6.900;2023-03-29T09:24:22;101262.88;;;14.03
37452;BMP280;23314;51.114;6.900;2023-03-29T09:26:59;101272.00;;;14.06
37452;BMP280;23314;51.114;6.900;2023-03-29T09:29:41;101270.69;;;14.14
37452;BMP280;23314;51.114;6.900;2023-03-29T09:32:28;101263.09;;;14.29
37452;BMP280;23314;51.114;6.900;2023-03-29T09:35:15;101265.47;;;14.43
37452;BMP280;23314;51.114;6.900;2023-03-29T09:37:44;101267.84;;;14.58
37452;BMP280;23314;51.114;6.900;2023-03-29T09:40:15;101265.25;;;14.70
37452;BMP280;23314;51.114;6.900;2023-03-29T09:42:42;101270.66;;;14.87
37452;BMP280;23314;51.114;6.900;2023-03-29T09:45:08;101263.25;;;15.08
37452;BMP280;23314;51.114;6.900;2023-03-29T09:47:41;101261.09;;;15.32
37452;BMP280;23314;51.114;6.900;2023-03-29T09:50:17;101260.88;;;15.56
37452;BMP280;23314;51.114;6.900;2023-03-29T09:52:42;101251.88;;;15.75
37452;BMP280;23314;51.114;6.900;2023-03-29T09:55:12;101261.72;;;15.82
37452;BMP280;23314;51.114;6.900;2023-03-29T09:57:38;101256.34;;;15.95
37452;BMP280;23314;51.114;6.900;2023-03-29T10:00:04;101264.22;;;16.02
37452;BMP280;23314;51.114;6.900;2023-03-29T10:02:30;101263.28;;;16.09
37452;BMP280;23314;51.114;6.900;2023-03-29T10:04:56;101256.72;;;16.10
37452;BMP280;23314;51.114;6.900;2023-03-29T10:07:56;101261.41;;;16.06
37452;BMP280;23314;51.114;6.900;2023-03-29T10:10:27;101252.91;;;16.07
37452;BMP280;23314;51.114;6.900;2023-03-29T10:12:58;101246.69;;;16.23
37452;BMP280;23314;51.114;6.900;2023-03-29T10:15:26;101237.84;;;16.48
37452;BMP280;23314;51.114;6.900;2023-03-29T10:17:57;101244.28;;;16.64
37452;BMP280;23314;51.114;6.900;2023-03-29T10:20:23;101241.75;;;16.82
37452;BMP280;23314;51.114;6.900;2023-03-29T10:22:55;101245.38;;;17.01
37452;BMP280;23314;51.114;6.900;2023-03-29T10:25:26;101245.66;;;17.16
37452;BMP280;23314;51.114;6.900;2023-03-29T10:27:55;101239.91;;;17.27
37452;BMP280;23314;51.114;6.900;2023-03-29T10:30:24;101242.00;;;17.32
37452;BMP280;23314;51.114;6.900;2023-03-29T10:32:55;101241.41;;;17.28
37452;BMP280;23314;51.114;6.900;2023-03-29T10:35:37;101243.56;;;17.20
37452;BMP280;23314;51.114;6.900;2023-03-29T10:38:09;101246.63;;;17.10
37452;BMP280;23314;51.114;6.900;2023-03-29T10:40:47;101240.50;;;17.09
37452;BMP280;23314;51.114;6.900;2023-03-29T10:43:21;101236.16;;;17.12
37452;BMP280;23314;51.114;6.900;2023-03-29T10:45:48;101229.00;;;17.18
37452;BMP280;23314;51.114;6.900;2023-03-29T10:48:15;101226.97;;;17.22
37452;BMP280;23314;51.114;6.900;2023-03-29T10:50:41;101221.75;;;17.28
37452;BMP280;23314;51.114;6.900;2023-03-29T10:53:27;101214.84;;;17.49
37452;BMP280;23314;51.114;6.900;2023-03-29T11:01:02;101208.88;;;17.85
37452;BMP280;23314;51.114;6.900;2023-03-29T11:06:57;101210.44;;;18.05
37452;BMP280;23314;51.114;6.900;2023-03-29T11:09:51;101200.72;;;18.26
37452;BMP280;23314;51.114;6.900;2023-03-29T11:12:26;101202.09;;;18.40
37452;BMP280;23314;51.114;6.900;2023-03-29T11:15:18;101207.69;;;18.46
37452;BMP280;23314;51.114;6.900;2023-03-29T11:17:57;101203.78;;;18.47
37452;BMP280;23314;51.114;6.900;2023-03-29T11:20:40;101207.84;;;18.51
37452;BMP280;23314;51.114;6.900;2023-03-29T11:29:02;101203.19;;;18.70
37452;BMP280;23314;51.114;6.900;2023-03-29T11:31:57;101200.91;;;18.87
37452;BMP280;23314;51.114;6.900;2023-03-29T11:40:01;101196.31;;;19.40
37452;BMP280;23314;51.114;6.900;2023-03-29T11:42:30;101188.41;;;19.60
37452;BMP280;23314;51.114;6.900;2023-03-29T11:44:58;101184.47;;;19.71
37452;BMP280;23314;51.114;6.900;2023-03-29T11:47:32;101187.06;;;19.89
37452;BMP280;23314;51.114;6.900;2023-03-29T11:50:18;101176.59;;;20.06
37452;BMP280;23314;51.114;6.900;2023-03-29T11:52:51;101169.09;;;20.01
37452;BMP280;23314;51.114;6.900;2023-03-29T11:55:21;101164.97;;;19.91
37452;BMP280;23314;51.114;6.900;2023-03-29T12:00:34;101163.66;;;20.01
37452;BMP280;23314;51.114;6.900;2023-03-29T12:05:51;101158.94;;;20.11
37452;BMP280;23314;51.114;6.900;2023-03-29T12:08:27;101162.41;;;20.11
37452;BMP280;23314;51.114;6.900;2023-03-29T12:13:39;101163.66;;;20.01
37452;BMP280;23314;51.114;6.900;2023-03-29T12:16:13;101153.72;;;20.07
37452;BMP280;23314;51.114;6.900;2023-03-29T12:18:48;101156.38;;;20.17
37452;BMP280;23314;51.114;6.900;2023-03-29T12:21:18;101150.00;;;20.20
37452;BMP280;23314;51.114;6.900;2023-03-29T12:23:45;101148.59;;;20.09
37452;BMP280;23314;51.114;6.900;2023-03-29T12:26:31;101141.09;;;20.04
37452;BMP280;23314;51.114;6.900;2023-03-29T12:31:50;101132.34;;;20.09
37452;BMP280;23314;51.114;6.900;2023-03-29T12:34:37;101130.28;;;20.19
37452;BMP280;23314;51.114;6.900;2023-03-29T12:37:26;101125.28;;;20.27
37452;BMP280;23314;51.114;6.900;2023-03-29T12:40:16;101126.50;;;20.41
37452;BMP280;23314;51.114;6.900;2023-03-29T12:42:46;101123.63;;;20.59
37452;BMP280;23314;51.114;6.900;2023-03-29T12:45:26;101133.53;;;20.77
37452;BMP280;23314;51.114;6.900;2023-03-29T12:47:54;101127.19;;;20.95
37452;BMP280;23314;51.114;6.900;2023-03-29T12:50:25;101127.22;;;21.16
37452;BMP280;23314;51.114;6.900;2023-03-29T12:53:00;101120.00;;;21.28
37452;BMP280;23314;51.114;6.900;2023-03-29T12:55:46;101113.69;;;21.37
37452;BMP280;23314;51.114;6.900;2023-03-29T12:58:35;101118.06;;;21.49
37452;BMP280;23314;51.114;6.900;2023-03-29T13:01:09;101116.16;;;21.55
37452;BMP280;23314;51.114;6.900;2023-03-29T13:06:06;101109.81;;;21.64
37452;BMP280;23314;51.114;6.900;2023-03-29T13:08:41;101105.13;;;21.59
37452;BMP280;23314;51.114;6.900;2023-03-29T13:11:11;101107.59;;;21.62
37452;BMP280;23314;51.114;6.900;2023-03-29T13:13:48;101099.56;;;21.74
37452;BMP280;23314;51.114;6.900;2023-03-29T13:16:29;101097.34;;;21.72
37452;BMP280;23314;51.114;6.900;2023-03-29T13:19:20;101081.13;;;21.78
37452;BMP280;23314;51.114;6.900;2023-03-29T13:27:28;101099.53;;;21.12
37452;BMP280;23314;51.114;6.900;2023-03-29T13:30:16;101100.66;;;20.70
37452;BMP280;23314;51.114;6.900;2023-03-29T13:35:52;101089.84;;;20.16
37452;BMP280;23314;51.114;6.900;2023-03-29T13:38:21;101084.16;;;20.14
37452;BMP280;23314;51.114;6.900;2023-03-29T13:51:20;101073.25;;;20.38
37452;BMP280;23314;51.114;6.900;2023-03-29T13:53:56;101071.16;;;20.33
37452;BMP280;23314;51.114;6.900;2023-03-29T13:56:33;101059.41;;;20.36
37452;BMP280;23314;51.114;6.900;2023-03-29T13:59:26;101040.34;;;20.45
37452;BMP280;23314;51.114;6.900;2023-03-29T14:01:55;101034.38;;;20.56
37452;BMP280;23314;51.114;6.900;2023-03-29T14:04:24;101031.66;;;20.71
37452;BMP280;23314;51.114;6.900;2023-03-29T14:06:53;101025.72;;;20.87
37452;BMP280;23314;51.114;6.900;2023-03-29T14:09:31;101025.63;;;20.96
37452;BMP280;23314;51.114;6.900;2023-03-29T14:11:59;101019.91;;;20.94
37452;BMP280;23314;51.114;6.900;2023-03-29T14:14:28;101027.41;;;20.85
37452;BMP280;23314;51.114;6.900;2023-03-29T14:16:55;101022.59;;;20.74
37452;BMP280;23314;51.114;6.900;2023-03-29T14:19:28;101011.34;;;20.66
37452;BMP280;23314;51.114;6.900;2023-03-29T14:21:54;101002.69;;;20.62
37452;BMP280;23314;51.114;6.900;2023-03-29T14:24:21;101007.56;;;20.58
37452;BMP280;23314;51.114;6.900;2023-03-29T14:26:47;101001.09;;;20.55
37452;BMP280;23314;51.114;6.900;2023-03-29T14:29:13;101001.28;;;20.52
37452;BMP280;23314;51.114;6.900;2023-03-29T14:31:40;101004.75;;;20.52
37452;BMP280;23314;51.114;6.900;2023-03-29T14:34:12;101004.19;;;20.48
37452;BMP280;23314;51.114;6.900;2023-03-29T14:36:38;100998.50;;;20.46
37452;BMP280;23314;51.114;6.900;2023-03-29T14:39:09;100990.53;;;20.42
37452;BMP280;23314;51.114;6.900;2023-03-29T14:41:36;100990.84;;;20.44
37452;BMP280;23314;51.114;6.900;2023-03-29T14:44:03;100993.25;;;20.42
37452;BMP280;23314;51.114;6.900;2023-03-29T14:46:29;101003.34;;;20.42
37452;BMP280;23314;51.114;6.900;2023-03-29T14:48:58;100990.31;;;20.40
37452;BMP280;23314;51.114;6.900;2023-03-29T14:51:24;100998.56;;;20.37
37452;BMP280;23314;51.114;6.900;2023-03-29T14:53:52;100992.16;;;20.34
37452;BMP280;23314;51.114;6.900;2023-03-29T14:56:18;100990.75;;;20.39
37452;BMP280;23314;51.114;6.900;2023-03-29T14:58:48;100982.53;;;20.33
37452;BMP280;23314;51.114;6.900;2023-03-29T15:01:16;100980.75;;;20.30
37452;BMP280;23314;51.114;6.900;2023-03-29T15:03:43;100977.66;;;20.37
37452;BMP280;23314;51.114;6.900;2023-03-29T15:06:11;100969.63;;;20.43
37452;BMP280;23314;51.114;6.900;2023-03-29T15:08:39;100968.06;;;20.36
37452;BMP280;23314;51.114;6.900;2023-03-29T15:11:19;100964.03;;;20.32
37452;BMP280;23314;51.114;6.900;2023-03-29T15:13:46;100963.94;;;20.26
37452;BMP280;23314;51.114;6.900;2023-03-29T15:16:15;100952.06;;;20.23
37452;BMP280;23314;51.114;6.900;2023-03-29T15:18:44;100950.09;;;20.24
37452;BMP280;23314;51.114;6.900;2023-03-29T15:21:14;100948.91;;;20.25
37452;BMP280;23314;51.114;6.900;2023-03-29T15:23:46;100951.91;;;20.27